WARNING - Change wsUserSettings.php: $SITE["topfolder"] from : weather28m/ to: ./
Welkom op onze website -
Gegevens meteorieten voor 2019 onder zon aarde ruimte


Webcam zuid Meer informatie Webcam zuid


Webcam noord Meer informatie Webcam noord


Onweer radar Meer informatie blitzortung!


Regen radar Meer informatie rain snow radar


Bezoek onze andere website:

Template documentation
and downloads

Onze andere website


U vindt ons ook hier:

Het Weer Aktueel

UK Metoffice

European Weather Network

WeatherCloud

Weather Underground

Austria Weather Network

AWEKAS

Citizen Weather Observer Program (CWOP)

HAMweather, WeatherForYou, PWS Weather

Wetterpage 24

Roosendaal op internet

VWKWEB

RadioZuidWestFM



Het weer levert geen direct gevaar op.    Er zijn geen waarschuwingen afgegeven.

METAR rapporten vliegvelden

   
EHWO - Bergen op Zoom
Gewijzigd: 20-04-2019 12:55
Helder  
Helder  
   Wind: ONO 18.5 km/h
Wind: ONO 18.5 km/h
Temperatuur: 23°C
Dauwpunt: 5°C
Vochtigheid: 31%
Barometer: 1028 hPa
Bewolking: Helder
Zicht: meer dan 10 km
Bewolking: Helder
EHWO 201055Z AUTO 06010KT 050V120 9999 NCD 23/05 Q1028 BLU
EHWO - Woensdrecht
Gewijzigd: 20-04-2019 12:55
Helder  
Helder  
   Wind: ONO 18.5 km/h
Wind: ONO 18.5 km/h
Temperatuur: 23°C
Dauwpunt: 5°C
Vochtigheid: 31%
Barometer: 1028 hPa
Bewolking: Helder
Zicht: meer dan 10 km
Bewolking: Helder
EHWO 201055Z AUTO 06010KT 050V120 9999 NCD 23/05 Q1028 BLU
EHWO - Steenbergen
Gewijzigd: 20-04-2019 12:55
Helder  
Helder  
   Wind: ONO 18.5 km/h
Wind: ONO 18.5 km/h
Temperatuur: 23°C
Dauwpunt: 5°C
Vochtigheid: 31%
Barometer: 1028 hPa
Bewolking: Helder
Zicht: meer dan 10 km
Bewolking: Helder
EHWO 201055Z AUTO 06010KT 050V120 9999 NCD 23/05 Q1028 BLU
EHWO - Oud-Gastel
Gewijzigd: 20-04-2019 12:55
Helder  
Helder  
   Wind: ONO 18.5 km/h
Wind: ONO 18.5 km/h
Temperatuur: 23°C
Dauwpunt: 5°C
Vochtigheid: 31%
Barometer: 1028 hPa
Bewolking: Helder
Zicht: meer dan 10 km
Bewolking: Helder
EHWO 201055Z AUTO 06010KT 050V120 9999 NCD 23/05 Q1028 BLU
EHWO - Oudenbosch
Gewijzigd: 20-04-2019 12:55
Helder  
Helder  
   Wind: ONO 18.5 km/h
Wind: ONO 18.5 km/h
Temperatuur: 23°C
Dauwpunt: 5°C
Vochtigheid: 31%
Barometer: 1028 hPa
Bewolking: Helder
Zicht: meer dan 10 km
Bewolking: Helder
EHWO 201055Z AUTO 06010KT 050V120 9999 NCD 23/05 Q1028 BLU
EHWO - Rucphen
Gewijzigd: 20-04-2019 12:55
Helder  
Helder  
   Wind: ONO 18.5 km/h
Wind: ONO 18.5 km/h
Temperatuur: 23°C
Dauwpunt: 5°C
Vochtigheid: 31%
Barometer: 1028 hPa
Bewolking: Helder
Zicht: meer dan 10 km
Bewolking: Helder
EHWO 201055Z AUTO 06010KT 050V120 9999 NCD 23/05 Q1028 BLU
EHWO - Bergen op Zoom
Gewijzigd: 20-04-2019 12:55
Helder  
Helder  
   Wind: ONO 18.5 km/h
Wind: ONO 18.5 km/h
Temperatuur: 23°C
Dauwpunt: 5°C
Vochtigheid: 31%
Barometer: 1028 hPa
Bewolking: Helder
Zicht: meer dan 10 km
Bewolking: Helder
EHWO 201055Z AUTO 06010KT 050V120 9999 NCD 23/05 Q1028 BLU
EHWO - Fijnaart
Gewijzigd: 20-04-2019 12:55
Helder  
Helder  
   Wind: ONO 18.5 km/h
Wind: ONO 18.5 km/h
Temperatuur: 23°C
Dauwpunt: 5°C
Vochtigheid: 31%
Barometer: 1028 hPa
Bewolking: Helder
Zicht: meer dan 10 km
Bewolking: Helder
EHWO 201055Z AUTO 06010KT 050V120 9999 NCD 23/05 Q1028 BLU
EHWO - Ossendrecht
Gewijzigd: 20-04-2019 12:55
Helder  
Helder  
   Wind: ONO 18.5 km/h
Wind: ONO 18.5 km/h
Temperatuur: 23°C
Dauwpunt: 5°C
Vochtigheid: 31%
Barometer: 1028 hPa
Bewolking: Helder
Zicht: meer dan 10 km
Bewolking: Helder
EHWO 201055Z AUTO 06010KT 050V120 9999 NCD 23/05 Q1028 BLU

Script ontwikkeld door  Saratoga-weather.org Aangepast voor de template door  Weerstation Leuven

Apparatuur in gebruik:

Weerstation
Davis VP2

Weerprogramma
Meteobridge

Weercomputer
Shuttle

Webleverancier
WeservIT

Davis VP2

Meteobridge

Shuttle

WeservIT